Time;durP1;ratioP1;P1;durP2;ratioP2;P2;SDS_P1;SDS_P2;PMS_P1;PMS_P2;Temp;Humidity;BMP_temperature;BMP_pressure;BME280_temperature;BME280_humidity;BME280_pressure;Samples;Min_cycle;Max_cycle;Signal;HPM_P1;HPM_P2
2023/06/27 00:01:23;;;;;;;5.95;2.15;;;15.20;99.90;;;;;;4962334;28;20182;-54
2023/06/27 00:03:51;;;;;;;5.68;2.15;;;15.10;99.90;;;;;;4962749;28;20346;-55
2023/06/27 00:06:20;;;;;;;5.55;2.20;;;15.10;99.90;;;;;;4961172;28;20154;-52
2023/06/27 00:08:49;;;;;;;6.15;2.50;;;15.10;99.90;;;;;;4961493;28;20254;-54
2023/06/27 00:11:15;;;;;;;10.20;2.30;;;15.10;99.90;;;;;;4963261;28;20310;-55
2023/06/27 00:13:42;;;;;;;5.72;2.20;;;15.00;99.90;;;;;;4971376;28;20039;-58
2023/06/27 00:16:13;;;;;;;5.97;2.47;;;15.00;99.90;;;;;;4981018;28;20085;-56
2023/06/27 00:18:47;;;;;;;5.45;2.42;;;14.90;99.90;;;;;;4981845;28;20109;-56
2023/06/27 00:21:13;;;;;;;;;;;15.00;99.90;;;;;;4982336;28;20607;-54
2023/06/27 00:23:39;;;;;;;9.27;2.80;;;14.80;99.90;;;;;;4980440;28;20016;-58
2023/06/27 00:26:06;;;;;;;6.75;3.15;;;14.70;99.90;;;;;;4976874;28;20132;-59
2023/06/27 00:28:32;;;;;;;6.47;2.88;;;14.70;99.90;;;;;;4971512;28;20050;-57
2023/06/27 00:30:58;;;;;;;5.07;2.80;;;14.80;99.90;;;;;;4961005;28;20053;-54
2023/06/27 00:33:23;;;;;;;4.97;2.60;;;14.70;99.90;;;;;;4962813;28;20054;-58
2023/06/27 00:35:49;;;;;;;5.82;2.95;;;14.80;99.90;;;;;;4962736;28;20083;-56
2023/06/27 00:38:15;;;;;;;6.18;2.58;;;14.80;99.90;;;;;;4962341;28;20065;-59
2023/06/27 00:40:40;;;;;;;7.65;3.20;;;14.70;99.90;;;;;;4960607;28;20046;-58
2023/06/27 00:43:06;;;;;;;6.80;2.63;;;14.70;99.90;;;;;;4962149;28;20081;-53
2023/06/27 00:45:31;;;;;;;6.78;2.97;;;14.60;99.90;;;;;;4962443;28;20436;-59
2023/06/27 00:47:58;;;;;;;8.38;3.20;;;14.70;99.90;;;;;;4961678;28;20518;-57
2023/06/27 00:50:26;;;;;;;7.35;3.20;;;14.70;99.90;;;;;;4962064;28;20498;-57
2023/06/27 00:52:52;;;;;;;6.03;2.72;;;14.70;99.90;;;;;;4961193;28;20514;-53
2023/06/27 00:55:19;;;;;;;6.72;2.90;;;14.70;99.90;;;;;;4962663;28;20140;-55
2023/06/27 00:57:46;;;;;;;6.78;2.70;;;14.60;99.90;;;;;;4962407;28;20047;-59
2023/06/27 01:00:13;;;;;;;6.70;3.00;;;14.60;99.90;;;;;;4962496;28;20051;-54
2023/06/27 01:02:39;;;;;;;9.35;3.38;;;14.60;99.90;;;;;;4961853;28;20499;-55
2023/06/27 01:05:09;;;;;;;6.43;2.90;;;14.60;99.90;;;;;;4961062;28;20380;-58
2023/06/27 01:07:40;;;;;;;5.95;3.10;;;14.60;99.90;;;;;;4961688;28;20119;-58
2023/06/27 01:10:15;;;;;;;9.45;3.65;;;14.60;99.90;;;;;;4965660;28;20042;-59
2023/06/27 01:12:51;;;;;;;5.95;3.00;;;14.60;99.90;;;;;;4981205;28;20663;-55
2023/06/27 01:15:17;;;;;;;5.78;3.03;;;14.60;99.90;;;;;;4981580;28;20101;-54
2023/06/27 01:17:44;;;;;;;7.13;3.22;;;14.50;99.90;;;;;;4981303;28;20688;-54
2023/06/27 01:20:12;;;;;;;7.32;2.80;;;14.50;99.90;;;;;;4981526;28;20057;-59
2023/06/27 01:22:44;;;;;;;7.03;3.03;;;14.50;99.90;;;;;;4980719;28;20038;-57
2023/06/27 01:25:11;;;;;;;8.10;2.90;;;14.50;99.90;;;;;;4980736;28;20050;-57
2023/06/27 01:27:38;;;;;;;7.25;2.83;;;14.50;99.90;;;;;;4981731;28;20034;-59
2023/06/27 01:30:04;;;;;;;5.20;3.13;;;14.50;99.90;;;;;;4981349;28;20042;-55
2023/06/27 01:32:58;;;;;;;7.00;2.80;;;14.50;99.90;;;;;;4981043;28;20046;-55
2023/06/27 01:35:34;;;;;;;6.95;2.88;;;14.50;99.90;;;;;;4981172;28;20129;-56
2023/06/27 01:38:05;;;;;;;5.90;2.80;;;14.50;99.90;;;;;;4979876;28;20046;-52
2023/06/27 01:40:36;;;;;;;6.72;2.92;;;14.50;99.90;;;;;;4981517;28;20113;-57
2023/06/27 01:43:06;;;;;;;7.60;2.97;;;14.50;99.90;;;;;;4984789;28;20045;-55
2023/06/27 01:45:33;;;;;;;8.88;3.13;;;14.60;99.90;;;;;;4984154;28;20049;-58
2023/06/27 01:47:59;;;;;;;8.57;2.90;;;14.50;99.90;;;;;;4984670;28;20049;-56
2023/06/27 01:50:26;;;;;;;6.65;3.30;;;14.50;99.90;;;;;;4984825;28;20097;-55
2023/06/27 01:52:51;;;;;;;7.10;3.28;;;14.50;99.90;;;;;;4983503;28;20456;-57
2023/06/27 01:55:17;;;;;;;5.40;2.72;;;14.50;99.90;;;;;;4985399;28;20050;-57
2023/06/27 01:57:43;;;;;;;7.35;2.70;;;14.50;99.90;;;;;;4984436;28;20042;-59
2023/06/27 02:00:11;;;;;;;7.95;3.08;;;14.60;99.90;;;;;;4984349;28;20121;-52
2023/06/27 02:02:37;;;;;;;6.97;2.65;;;14.50;99.90;;;;;;5016181;28;20425;-58
2023/06/27 02:05:02;;;;;;;6.95;2.95;;;14.40;99.90;;;;;;4983793;28;20066;-58
2023/06/27 02:07:28;;;;;;;7.03;2.70;;;14.30;99.90;;;;;;4983785;28;20054;-58
2023/06/27 02:09:54;;;;;;;7.97;3.17;;;14.40;99.90;;;;;;4983817;28;20046;-55
2023/06/27 02:12:19;;;;;;;6.30;3.00;;;14.40;99.90;;;;;;4983185;28;20077;-52
2023/06/27 02:14:45;;;;;;;7.20;3.00;;;14.40;99.90;;;;;;4984429;28;20209;-55
2023/06/27 02:17:10;;;;;;;7.30;2.60;;;14.30;99.90;;;;;;4983614;28;20050;-57
2023/06/27 02:19:36;;;;;;;6.22;2.80;;;14.30;99.90;;;;;;4984097;28;20050;-59
2023/06/27 02:22:02;;;;;;;4.53;2.70;;;14.30;99.90;;;;;;4983267;28;20042;-57
2023/06/27 02:24:28;;;;;;;7.00;2.58;;;14.40;99.90;;;;;;4976045;28;20050;-53
2023/06/27 02:26:54;;;;;;;7.93;2.88;;;14.30;99.90;;;;;;4966388;28;20498;-57
2023/06/27 02:29:19;;;;;;;6.70;2.67;;;14.30;99.90;;;;;;4964672;28;20574;-57
2023/06/27 02:31:45;;;;;;;6.82;3.08;;;14.40;99.90;;;;;;4964699;28;20097;-59
2023/06/27 02:34:10;;;;;;;5.70;2.55;;;14.40;99.90;;;;;;4966030;28;20058;-52
2023/06/27 02:36:36;;;;;;;6.97;2.97;;;14.30;99.90;;;;;;4964362;28;20470;-53
2023/06/27 02:39:02;;;;;;;8.50;3.10;;;14.30;99.90;;;;;;4963991;28;20066;-56
2023/06/27 02:41:28;;;;;;;5.13;3.08;;;14.30;99.90;;;;;;4964396;28;20050;-59
2023/06/27 02:43:54;;;;;;;5.20;2.85;;;14.30;99.90;;;;;;4964668;28;20385;-56
2023/06/27 02:46:20;;;;;;;8.13;3.30;;;14.30;99.90;;;;;;4974831;28;20046;-52
2023/06/27 02:48:45;;;;;;;5.85;2.92;;;14.30;99.90;;;;;;4983528;28;20461;-52
2023/06/27 02:51:11;;;;;;;6.57;3.20;;;14.30;99.90;;;;;;4981836;28;20111;-52
2023/06/27 02:53:37;;;;;;;4.82;2.70;;;14.30;99.90;;;;;;4982262;28;20524;-58
2023/06/27 02:56:04;;;;;;;6.07;2.78;;;14.30;99.90;;;;;;4983658;28;20482;-55
2023/06/27 02:58:30;;;;;;;8.40;3.13;;;14.30;99.90;;;;;;4983169;28;20057;-54
2023/06/27 03:00:57;;;;;;;7.00;3.20;;;14.30;99.90;;;;;;4982909;28;20430;-54
2023/06/27 03:03:23;;;;;;;6.55;3.28;;;14.20;99.90;;;;;;4983648;28;20046;-59
2023/06/27 03:05:48;;;;;;;7.95;3.35;;;14.20;99.90;;;;;;4982918;28;20381;-56
2023/06/27 03:08:14;;;;;;;7.60;3.22;;;14.20;99.90;;;;;;4981629;28;20039;-56
2023/06/27 03:10:39;;;;;;;8.02;3.25;;;14.20;99.90;;;;;;4983063;28;20053;-53
2023/06/27 03:13:05;;;;;;;7.07;3.17;;;14.10;99.90;;;;;;4982713;28;20038;-52
2023/06/27 03:15:31;;;;;;;5.78;3.10;;;14.40;99.90;;;;;;4982625;28;20503;-57
2023/06/27 03:17:56;;;;;;;5.75;3.30;;;14.10;99.90;;;;;;4982399;28;20038;-54
2023/06/27 03:20:22;;;;;;;7.38;3.42;;;14.10;99.90;;;;;;4983385;28;20046;-54
2023/06/27 03:22:48;;;;;;;8.77;3.28;;;14.10;99.90;;;;;;4982539;28;20034;-55
2023/06/27 03:25:13;;;;;;;4.90;3.08;;;14.10;99.90;;;;;;4982483;28;20043;-47
2023/06/27 03:27:39;;;;;;;7.43;3.40;;;14.00;99.90;;;;;;4983438;28;20042;-58
2023/06/27 03:30:07;;;;;;;7.18;3.55;;;14.00;99.90;;;;;;4982622;28;20137;-56
2023/06/27 03:32:33;;;;;;;7.65;3.28;;;14.00;99.90;;;;;;4982289;28;20057;-53
2023/06/27 03:34:59;;;;;;;6.07;3.40;;;14.00;99.90;;;;;;4980774;28;20117;-54
2023/06/27 03:37:25;;;;;;;8.90;3.42;;;14.00;99.90;;;;;;4982252;28;20041;-57
2023/06/27 03:39:51;;;;;;;7.90;4.05;;;14.10;99.90;;;;;;4983044;28;20429;-57
2023/06/27 03:42:16;;;;;;;6.22;3.53;;;14.00;99.90;;;;;;4981796;28;20034;-55
2023/06/27 03:44:42;;;;;;;7.07;3.40;;;14.00;99.90;;;;;;4982563;28;20045;-54
2023/06/27 03:47:08;;;;;;;6.57;3.40;;;14.00;99.90;;;;;;4982384;28;20277;-54
2023/06/27 03:49:33;;;;;;;8.32;3.40;;;14.00;99.90;;;;;;4982488;28;20274;-58
2023/06/27 03:51:59;;;;;;;7.03;3.40;;;14.00;99.90;;;;;;4981344;28;20060;-58
2023/06/27 03:54:25;;;;;;;6.93;3.10;;;14.00;99.90;;;;;;4983087;28;20486;-57
2023/06/27 03:56:51;;;;;;;6.22;3.25;;;14.10;99.90;;;;;;4982415;28;20047;-52
2023/06/27 03:59:16;;;;;;;5.72;3.40;;;14.10;99.90;;;;;;4980468;28;20532;-56
2023/06/27 04:01:42;;;;;;;7.07;3.78;;;14.10;99.90;;;;;;4982654;28;20068;-57
2023/06/27 04:04:08;;;;;;;6.78;3.67;;;14.00;99.90;;;;;;4978531;28;20379;-55
2023/06/27 04:06:34;;;;;;;10.05;3.95;;;14.30;99.90;;;;;;4961248;28;20510;-55
2023/06/27 04:09:02;;;;;;;6.50;3.97;;;14.10;99.90;;;;;;4961110;28;20085;-52
2023/06/27 04:11:28;;;;;;;11.50;3.90;;;14.10;99.90;;;;;;4963250;28;20551;-58
2023/06/27 04:13:56;;;;;;;10.35;3.65;;;14.20;99.90;;;;;;4962525;28;20038;-47
2023/06/27 04:16:22;;;;;;;7.68;3.85;;;14.20;99.90;;;;;;4961910;28;20050;-52
2023/06/27 04:18:47;;;;;;;9.90;3.95;;;14.50;99.90;;;;;;4962394;28;20398;-55
2023/06/27 04:21:13;;;;;;;6.05;3.58;;;14.50;99.90;;;;;;4962697;28;20046;-55
2023/06/27 04:23:39;;;;;;;8.60;4.13;;;14.40;99.90;;;;;;4961668;28;20047;-52
2023/06/27 04:26:07;;;;;;;6.05;3.33;;;14.40;99.90;;;;;;4962142;28;20050;-57
2023/06/27 04:28:36;;;;;;;8.32;3.92;;;14.40;99.90;;;;;;4962358;28;20051;-52
2023/06/27 04:31:02;;;;;;;12.88;4.07;;;14.50;99.90;;;;;;4962360;28;20086;-60
2023/06/27 04:33:28;;;;;;;6.85;3.22;;;14.50;99.90;;;;;;4962553;28;20046;-55
2023/06/27 04:35:57;;;;;;;8.15;3.10;;;14.50;99.90;;;;;;4962321;28;20058;-53
2023/06/27 04:38:22;;;;;;;5.65;3.33;;;14.60;99.90;;;;;;4962108;28;20057;-58
2023/06/27 04:40:48;;;;;;;10.48;3.53;;;14.60;99.90;;;;;;4961730;28;20046;-56
2023/06/27 04:43:14;;;;;;;5.45;3.20;;;14.70;99.90;;;;;;4962497;28;20465;-55
2023/06/27 04:45:40;;;;;;;7.05;3.10;;;14.80;99.90;;;;;;4962280;28;20047;-52
2023/06/27 04:48:05;;;;;;;7.65;3.42;;;14.90;99.90;;;;;;4961915;28;20250;-49
2023/06/27 04:50:31;;;;;;;6.72;3.35;;;14.90;99.90;;;;;;4961635;28;20669;-57
2023/06/27 04:52:56;;;;;;;8.13;3.13;;;15.00;99.90;;;;;;4961796;28;20046;-56
2023/06/27 04:55:23;;;;;;;5.85;3.28;;;15.10;99.90;;;;;;4962616;28;20055;-57
2023/06/27 04:57:48;;;;;;;5.65;3.05;;;15.60;99.90;;;;;;4961861;28;20109;-52
2023/06/27 05:00:14;;;;;;;7.22;2.67;;;16.00;99.90;;;;;;4962366;28;20329;-54
2023/06/27 05:02:40;;;;;;;6.85;3.22;;;16.30;99.90;;;;;;4962640;28;20339;-58
2023/06/27 05:05:07;;;;;;;8.02;2.40;;;16.60;99.90;;;;;;4960603;28;20077;-56
2023/06/27 05:07:32;;;;;;;7.80;2.90;;;16.80;99.90;;;;;;4961136;28;20521;-49
2023/06/27 05:09:58;;;;;;;8.05;3.00;;;16.90;99.90;;;;;;4962401;28;20051;-52
2023/06/27 05:12:23;;;;;;;7.03;2.83;;;17.00;99.90;;;;;;4961749;28;20039;-53
2023/06/27 05:14:49;;;;;;;4.60;2.65;;;16.90;99.90;;;;;;4961318;28;20322;-57
2023/06/27 05:17:15;;;;;;;7.20;3.00;;;17.00;99.90;;;;;;4965156;28;20077;-58
2023/06/27 05:19:40;;;;;;;7.47;2.95;;;17.00;99.90;;;;;;4965705;28;20047;-47
2023/06/27 05:22:06;;;;;;;6.93;2.75;;;17.10;99.90;;;;;;4964599;28;20493;-54
2023/06/27 05:24:31;;;;;;;7.90;2.85;;;17.30;99.90;;;;;;4965330;28;20049;-54
2023/06/27 05:26:57;;;;;;;4.90;2.90;;;17.40;99.90;;;;;;4969732;28;20130;-57
2023/06/27 05:29:23;;;;;;;5.45;2.53;;;17.60;99.90;;;;;;4974085;28;20055;-57
2023/06/27 05:31:48;;;;;;;9.10;3.00;;;17.70;99.90;;;;;;4964932;28;20046;-50
2023/06/27 05:34:14;;;;;;;8.02;3.08;;;18.00;99.90;;;;;;4966011;28;20074;-53
2023/06/27 05:36:39;;;;;;;6.20;2.47;;;18.20;99.90;;;;;;4975146;28;20039;-52
2023/06/27 05:39:05;;;;;;;9.55;3.00;;;18.20;99.90;;;;;;4965613;28;20062;-56
2023/06/27 05:41:32;;;;;;;9.65;2.63;;;18.30;99.90;;;;;;4965597;28;20031;-57
2023/06/27 05:43:57;;;;;;;6.60;2.65;;;18.40;99.90;;;;;;4965458;28;20058;-56
2023/06/27 05:46:23;;;;;;;5.82;2.50;;;18.70;99.90;;;;;;4965638;28;20038;-53
2023/06/27 05:48:48;;;;;;;7.57;2.55;;;19.10;99.90;;;;;;4964420;28;20050;-54
2023/06/27 05:51:14;;;;;;;6.38;2.45;;;19.40;99.90;;;;;;4964934;28;20128;-58
2023/06/27 05:53:40;;;;;;;7.72;2.47;;;19.70;99.90;;;;;;4966075;28;20490;-48
2023/06/27 05:56:05;;;;;;;6.00;2.55;;;19.80;99.30;;;;;;4974735;28;20050;-50
2023/06/27 05:58:34;;;;;;;8.02;2.70;;;20.10;98.90;;;;;;4964603;28;20046;-53
2023/06/27 06:01:00;;;;;;;5.70;2.70;;;20.30;98.70;;;;;;4965153;28;20046;-57
2023/06/27 06:03:26;;;;;;;7.30;2.50;;;20.60;98.40;;;;;;4965000;28;20058;-57
2023/06/27 06:05:51;;;;;;;6.57;2.15;;;20.60;98.20;;;;;;4962587;28;20133;-58
2023/06/27 06:08:18;;;;;;;7.22;2.08;;;20.60;98.20;;;;;;4964078;28;20058;-53
2023/06/27 06:10:45;;;;;;;6.10;2.10;;;20.80;97.90;;;;;;4964929;28;20137;-54
2023/06/27 06:13:10;;;;;;;7.18;2.38;;;21.00;97.30;;;;;;4963122;28;20059;-55
2023/06/27 06:15:36;;;;;;;6.45;2.40;;;21.20;96.80;;;;;;4965218;28;20478;-57
2023/06/27 06:18:02;;;;;;;8.10;2.33;;;21.30;96.50;;;;;;4965463;28;20394;-54
2023/06/27 06:20:29;;;;;;;7.40;1.90;;;21.30;96.30;;;;;;4964630;28;20038;-53
2023/06/27 06:22:55;;;;;;;8.50;2.15;;;21.30;96.10;;;;;;4963383;28;20047;-58
2023/06/27 06:25:21;;;;;;;7.57;1.92;;;21.40;95.80;;;;;;4966173;28;20046;-57
2023/06/27 06:27:46;;;;;;;6.45;1.90;;;21.00;95.90;;;;;;4973203;28;20497;-55
2023/06/27 06:30:12;;;;;;;9.40;1.98;;;21.30;96.20;;;;;;4978899;28;20058;-50
2023/06/27 06:32:38;;;;;;;6.82;2.00;;;21.70;95.80;;;;;;4965460;28;20465;-53
2023/06/27 06:35:04;;;;;;;9.32;2.00;;;21.90;95.00;;;;;;4965003;28;20068;-57
2023/06/27 06:37:30;;;;;;;8.07;1.50;;;21.90;94.40;;;;;;4963845;28;20101;-56
2023/06/27 06:39:55;;;;;;;6.43;1.48;;;21.90;94.20;;;;;;4963986;28;20042;-56
2023/06/27 06:42:21;;;;;;;5.43;1.52;;;22.20;94.20;;;;;;4964443;28;20042;-52
2023/06/27 06:44:48;;;;;;;5.43;1.45;;;22.60;93.80;;;;;;4963977;28;20706;-55
2023/06/27 06:47:14;;;;;;;6.63;1.55;;;22.80;93.60;;;;;;4962181;28;20078;-58
2023/06/27 06:49:40;;;;;;;6.20;1.70;;;22.90;93.00;;;;;;4963971;28;20676;-58
2023/06/27 06:52:05;;;;;;;4.30;1.25;;;22.80;92.70;;;;;;4963711;28;20153;-53
2023/06/27 06:54:31;;;;;;;4.72;1.00;;;22.80;92.40;;;;;;4964001;28;20108;-54
2023/06/27 06:56:57;;;;;;;4.85;1.38;;;22.70;92.10;;;;;;4963617;28;20130;-58
2023/06/27 06:59:22;;;;;;;7.50;1.58;;;22.90;92.00;;;;;;4964100;28;20592;-58
2023/06/27 07:01:48;;;;;;;4.03;0.98;;;23.10;91.80;;;;;;4963992;28;20038;-52
2023/06/27 07:04:13;;;;;;;8.70;1.30;;;23.20;91.50;;;;;;4963026;28;20049;-55
2023/06/27 07:06:39;;;;;;;6.00;1.25;;;23.20;91.30;;;;;;4963079;28;20167;-52
2023/06/27 07:09:05;;;;;;;4.30;1.00;;;23.30;91.10;;;;;;4963941;28;20061;-58
2023/06/27 07:11:30;;;;;;;6.72;1.33;;;23.40;90.90;;;;;;4963856;28;20049;-58
2023/06/27 07:13:58;;;;;;;5.40;0.82;;;23.40;89.90;;;;;;4963227;28;20043;-55
2023/06/27 07:16:24;;;;;;;5.25;1.13;;;23.30;89.20;;;;;;4964029;28;20057;-52
2023/06/27 07:18:49;;;;;;;3.55;0.85;;;23.00;89.20;;;;;;4963778;28;20553;-54
2023/06/27 07:21:15;;;;;;;5.78;1.17;;;22.80;89.30;;;;;;4960920;28;20142;-55
2023/06/27 07:23:41;;;;;;;5.90;1.20;;;22.60;90.00;;;;;;4963695;28;20090;-52
2023/06/27 07:26:06;;;;;;;4.72;1.08;;;22.60;90.30;;;;;;4946870;28;20047;-57
2023/06/27 07:28:32;;;;;;;5.72;0.90;;;22.60;90.00;;;;;;4976375;28;20512;-51
2023/06/27 07:30:57;;;;;;;7.78;1.45;;;22.50;89.00;;;;;;4981998;28;20521;-54
2023/06/27 07:33:23;;;;;;;3.20;0.90;;;22.60;89.70;;;;;;4981527;28;20049;-51
2023/06/27 07:35:49;;;;;;;4.07;1.00;;;22.80;90.20;;;;;;4969634;28;20069;-56
2023/06/27 07:38:18;;;;;;;5.35;1.17;;;22.90;90.00;;;;;;4961593;28;20454;-54
2023/06/27 07:40:44;;;;;;;4.07;1.23;;;23.00;90.00;;;;;;4963071;28;20057;-55
2023/06/27 07:43:10;;;;;;;6.95;1.23;;;23.10;90.30;;;;;;4963652;28;20260;-57
2023/06/27 07:45:36;;;;;;;7.40;1.10;;;23.10;89.50;;;;;;4963290;28;20086;-57
2023/06/27 07:48:01;;;;;;;6.30;0.90;;;23.10;88.30;;;;;;4962720;28;20043;-51
2023/06/27 07:50:27;;;;;;;3.83;1.13;;;23.00;87.80;;;;;;4963059;28;20529;-52
2023/06/27 07:52:52;;;;;;;4.18;1.20;;;22.70;88.30;;;;;;4962342;28;20049;-54
2023/06/27 07:55:18;;;;;;;4.18;0.80;;;22.50;89.10;;;;;;4980214;28;20442;-58
2023/06/27 07:57:44;;;;;;;7.10;1.17;;;22.60;90.00;;;;;;4982345;28;20049;-59
2023/06/27 08:00:11;;;;;;;10.65;1.30;;;22.80;89.20;;;;;;4976393;28;20085;-53
2023/06/27 08:02:37;;;;;;;4.55;1.00;;;22.80;89.20;;;;;;4980886;28;20118;-52
2023/06/27 08:05:02;;;;;;;9.57;1.30;;;22.90;89.90;;;;;;4979786;28;20707;-56
2023/06/27 08:07:28;;;;;;;6.40;1.15;;;22.80;90.00;;;;;;4980721;28;20104;-58
2023/06/27 08:09:54;;;;;;;4.88;1.10;;;22.70;89.70;;;;;;4981837;28;20112;-57
2023/06/27 08:12:19;;;;;;;3.58;0.90;;;22.70;90.10;;;;;;4980967;28;20133;-54
2023/06/27 08:14:47;;;;;;;4.57;1.20;;;22.60;90.10;;;;;;4981859;28;20038;-52
2023/06/27 08:17:13;;;;;;;6.43;1.08;;;22.40;89.30;;;;;;4982202;28;20125;-57
2023/06/27 08:19:38;;;;;;;4.25;1.08;;;22.30;89.90;;;;;;4981979;28;20046;-58
2023/06/27 08:22:04;;;;;;;7.97;1.50;;;22.20;89.60;;;;;;4980600;28;20440;-53
2023/06/27 08:24:30;;;;;;;5.32;1.40;;;22.10;90.20;;;;;;4981643;28;20528;-53
2023/06/27 08:26:56;;;;;;;6.90;1.58;;;22.00;90.30;;;;;;4981530;28;20038;-51
2023/06/27 08:29:23;;;;;;;4.88;1.38;;;22.10;90.50;;;;;;4980666;28;20050;-48
2023/06/27 08:31:51;;;;;;;4.13;1.25;;;22.20;90.70;;;;;;4982177;28;20390;-58
2023/06/27 08:34:17;;;;;;;5.07;1.20;;;22.40;90.50;;;;;;4988160;28;20042;-52
2023/06/27 08:36:43;;;;;;;5.03;1.00;;;22.50;90.20;;;;;;4983117;28;20369;-55
2023/06/27 08:39:09;;;;;;;5.28;1.20;;;22.40;90.00;;;;;;4963456;28;20054;-55
2023/06/27 08:41:35;;;;;;;5.03;1.17;;;22.60;90.60;;;;;;4964256;28;20744;-57
2023/06/27 08:44:01;;;;;;;5.30;1.20;;;22.70;90.20;;;;;;4964474;28;20490;-55
2023/06/27 08:46:30;;;;;;;6.10;1.02;;;22.80;87.10;;;;;;4976594;28;20038;-53
2023/06/27 08:48:59;;;;;;;5.97;0.82;;;22.60;86.90;;;;;;4981931;28;20038;-49
2023/06/27 08:51:27;;;;;;;3.97;1.20;;;22.40;88.20;;;;;;4973408;28;20075;-53
2023/06/27 08:53:58;;;;;;;6.22;1.10;;;22.30;89.30;;;;;;4974908;28;20057;-52
2023/06/27 08:56:27;;;;;;;5.68;1.00;;;22.40;90.10;;;;;;4976149;28;20046;-49
2023/06/27 08:59:00;;;;;;;3.60;0.80;;;22.50;90.00;;;;;;4966022;28;20061;-55
2023/06/27 09:01:29;;;;;;;4.07;1.10;;;22.50;89.90;;;;;;4965564;28;20402;-53
2023/06/27 09:03:55;;;;;;;8.95;1.38;;;22.40;89.40;;;;;;4965952;28;20050;-54
2023/06/27 09:06:21;;;;;;;4.40;1.23;;;22.60;90.10;;;;;;4965093;28;20133;-57
2023/06/27 09:08:49;;;;;;;3.78;1.25;;;22.50;89.70;;;;;;4965604;28;20129;-51
2023/06/27 09:11:16;;;;;;;6.15;1.30;;;22.30;90.00;;;;;;4966194;28;20075;-51
2023/06/27 09:13:41;;;;;;;9.63;1.35;;;22.10;90.30;;;;;;4966174;28;20074;-57
2023/06/27 09:16:08;;;;;;;4.38;1.00;;;22.00;90.10;;;;;;4965790;28;20095;-56
2023/06/27 09:18:38;;;;;;;3.47;0.80;;;21.90;90.20;;;;;;4965838;28;20097;-58
2023/06/27 09:21:03;;;;;;;7.95;2.40;;;21.80;89.70;;;;;;4967099;28;20034;-53
2023/06/27 09:23:33;;;;;;;4.15;1.10;;;22.00;90.00;;;;;;4968669;28;20038;-57
2023/06/27 09:26:08;;;;;;;5.75;1.13;;;22.40;90.00;;;;;;4965683;28;20068;-60
2023/06/27 09:28:50;;;;;;;5.32;0.88;;;22.90;89.40;;;;;;4965903;28;20086;-60
2023/06/27 09:31:20;;;;;;;8.80;1.20;;;23.30;88.40;;;;;;4964151;28;20181;-56
2023/06/27 09:33:48;;;;;;;7.28;1.08;;;23.20;87.90;;;;;;4965935;28;20200;-59
2023/06/27 09:36:36;;;;;;;6.75;1.10;;;23.10;88.40;;;;;;4965281;28;20398;-59
2023/06/27 09:39:06;;;;;;;4.68;1.33;;;22.90;87.80;;;;;;4965257;28;20121;-56
2023/06/27 09:41:49;;;;;;;4.25;1.10;;;22.70;87.90;;;;;;4965567;28;20038;-54
2023/06/27 09:44:16;;;;;;;4.95;1.27;;;22.80;88.70;;;;;;4965817;28;20394;-55
2023/06/27 09:46:43;;;;;;;5.32;1.30;;;23.10;88.70;;;;;;4965547;28;20066;-54
2023/06/27 09:49:09;;;;;;;3.58;0.85;;;23.40;87.30;;;;;;4964425;28;20486;-56
2023/06/27 09:51:35;;;;;;;5.28;1.15;;;23.60;87.10;;;;;;4964771;28;20054;-56
2023/06/27 09:54:01;;;;;;;5.85;1.05;;;23.60;86.70;;;;;;4965233;28;20093;-57
2023/06/27 09:56:34;;;;;;;3.42;0.85;;;23.30;86.70;;;;;;4965317;28;20129;-56
2023/06/27 09:59:12;;;;;;;5.43;1.17;;;23.00;87.10;;;;;;4965424;28;20035;-57
2023/06/27 10:01:39;;;;;;;3.40;0.85;;;22.80;88.00;;;;;;4964566;28;20039;-58
2023/06/27 10:04:06;;;;;;;5.95;1.70;;;22.50;88.00;;;;;;4963943;28;20121;-57
2023/06/27 10:06:33;;;;;;;6.75;1.17;;;22.30;88.90;;;;;;4963812;28;20061;-58
2023/06/27 10:08:59;;;;;;;4.68;1.00;;;22.50;89.70;;;;;;4965488;28;20734;-58
2023/06/27 10:11:25;;;;;;;3.80;1.15;;;22.90;89.30;;;;;;4964136;28;20039;-57
2023/06/27 10:13:51;;;;;;;5.18;1.00;;;23.50;87.90;;;;;;4964767;28;20094;-60
2023/06/27 10:16:17;;;;;;;3.70;0.80;;;23.80;87.20;;;;;;4965436;28;20051;-58
2023/06/27 10:18:44;;;;;;;3.22;0.90;;;24.10;86.40;;;;;;4964590;28;20063;-59
2023/06/27 10:21:11;;;;;;;5.35;0.82;;;23.80;85.00;;;;;;4963564;28;20051;-58
2023/06/27 10:23:39;;;;;;;4.07;0.85;;;23.70;85.40;;;;;;4964969;28;20391;-56
2023/06/27 10:26:05;;;;;;;3.30;1.00;;;23.60;85.60;;;;;;4964694;28;20050;-59
2023/06/27 10:28:31;;;;;;;2.97;0.90;;;23.60;85.50;;;;;;4964403;28;20094;-57
2023/06/27 10:30:57;;;;;;;6.93;1.27;;;23.70;86.00;;;;;;4964834;28;20093;-56
2023/06/27 10:33:28;;;;;;;5.25;0.90;;;23.80;86.00;;;;;;4964228;28;20625;-56
2023/06/27 10:36:09;;;;;;;7.13;1.13;;;24.10;86.10;;;;;;4963397;28;20042;-57
2023/06/27 10:38:36;;;;;;;3.45;0.88;;;24.30;86.10;;;;;;4964998;28;20038;-58
2023/06/27 10:41:05;;;;;;;2.75;1.00;;;24.50;85.40;;;;;;4966487;28;20054;-60
2023/06/27 10:43:45;;;;;;;4.10;1.15;;;24.70;84.80;;;;;;4981923;28;20054;-56
2023/06/27 10:46:31;;;;;;;5.20;1.10;;;24.80;85.30;;;;;;4986455;28;20042;-56
2023/06/27 10:49:04;;;;;;;3.35;1.00;;;24.90;83.60;;;;;;4986237;28;20043;-55
2023/06/27 10:51:41;;;;;;;2.83;0.80;;;24.70;83.30;;;;;;4967629;28;20096;-55
2023/06/27 10:54:07;;;;;;;6.25;1.27;;;24.60;83.60;;;;;;4978524;28;20065;-51
2023/06/27 10:56:34;;;;;;;4.90;1.00;;;24.40;84.30;;;;;;4981557;28;20062;-56
2023/06/27 10:59:01;;;;;;;4.90;1.10;;;24.10;84.80;;;;;;4986007;28;20042;-55
2023/06/27 11:01:27;;;;;;;4.28;1.15;;;23.80;84.80;;;;;;4984987;28;20046;-56
2023/06/27 11:03:57;;;;;;;7.20;1.10;;;23.70;85.50;;;;;;4976067;28;20058;-56
2023/06/27 11:06:39;;;;;;;3.35;0.93;;;23.80;85.80;;;;;;4973922;28;20058;-55
2023/06/27 11:09:05;;;;;;;2.78;0.70;;;24.10;84.30;;;;;;4963845;28;20523;-55
2023/06/27 11:11:33;;;;;;;5.00;1.20;;;24.20;83.70;;;;;;4966291;28;20046;-56
2023/06/27 11:14:08;;;;;;;5.35;1.13;;;24.10;83.90;;;;;;4972590;28;20464;-54
2023/06/27 11:16:34;;;;;;;5.55;1.17;;;23.90;84.20;;;;;;4970955;28;20089;-56
2023/06/27 11:19:04;;;;;;;2.72;1.13;;;23.70;85.10;;;;;;4971675;28;20057;-55
2023/06/27 11:21:30;;;;;;;4.45;1.10;;;23.70;86.10;;;;;;4973576;28;20135;-55
2023/06/27 11:23:58;;;;;;;3.95;1.00;;;23.70;85.90;;;;;;4967030;28;20153;-56
2023/06/27 11:26:24;;;;;;;3.92;0.88;;;23.70;85.60;;;;;;4963546;28;20113;-56
2023/06/27 11:28:49;;;;;;;5.40;1.20;;;23.80;85.80;;;;;;4963807;28;20057;-54
2023/06/27 11:31:16;;;;;;;6.22;1.20;;;23.80;85.50;;;;;;4962689;28;20509;-55
2023/06/27 11:33:41;;;;;;;3.90;1.10;;;23.80;85.20;;;;;;4964218;28;20153;-56
2023/06/27 11:36:09;;;;;;;8.50;1.20;;;23.80;85.80;;;;;;4968310;28;20512;-55
2023/06/27 11:38:34;;;;;;;4.53;1.08;;;23.70;85.50;;;;;;4975441;28;20042;-54
2023/06/27 11:41:01;;;;;;;5.38;1.20;;;23.60;86.50;;;;;;4971413;28;20039;-54
2023/06/27 11:43:27;;;;;;;6.63;1.27;;;23.40;87.10;;;;;;4961953;28;20094;-56
2023/06/27 11:45:56;;;;;;;4.88;1.38;;;23.40;85.80;;;;;;4971430;28;20402;-54
2023/06/27 11:48:21;;;;;;;4.68;1.45;;;23.30;86.20;;;;;;4982609;28;20247;-54
2023/06/27 11:50:55;;;;;;;4.38;1.02;;;23.20;86.80;;;;;;4982326;28;20107;-56
2023/06/27 11:53:24;;;;;;;3.90;0.93;;;23.20;86.80;;;;;;4982245;28;20120;-54
2023/06/27 11:55:49;;;;;;;3.90;1.10;;;23.20;87.30;;;;;;4982456;28;20050;-55
2023/06/27 11:58:16;;;;;;;5.43;1.50;;;23.30;86.60;;;;;;4975788;28;20047;-55
2023/06/27 12:00:41;;;;;;;4.93;1.30;;;23.20;86.80;;;;;;4963091;28;20050;-55
2023/06/27 12:03:08;;;;;;;3.03;1.05;;;23.00;86.40;;;;;;4962335;28;20406;-54
2023/06/27 12:05:34;;;;;;;4.95;0.82;;;23.00;86.60;;;;;;4961782;28;20061;-55
2023/06/27 12:08:03;;;;;;;5.75;1.45;;;22.90;86.80;;;;;;4963146;28;20051;-55
2023/06/27 12:10:31;;;;;;;3.55;1.00;;;23.00;87.70;;;;;;4960676;28;20194;-54
2023/06/27 12:12:56;;;;;;;3.75;1.58;;;23.10;87.20;;;;;;4962970;28;20039;-56
2023/06/27 12:15:22;;;;;;;7.20;1.35;;;23.20;87.80;;;;;;4962532;28;20054;-60
2023/06/27 12:17:58;;;;;;;3.55;0.95;;;23.40;86.80;;;;;;4962495;28;20130;-57
2023/06/27 12:20:25;;;;;;;3.88;0.93;;;23.50;86.00;;;;;;4962168;28;20051;-49
2023/06/27 12:22:51;;;;;;;5.22;1.05;;;23.50;85.90;;;;;;4962542;28;20085;-58
2023/06/27 12:25:16;;;;;;;3.72;0.90;;;23.50;85.60;;;;;;4966720;28;20042;-52
2023/06/27 12:27:42;;;;;;;3.28;1.10;;;23.50;85.70;;;;;;4971524;28;20062;-58
2023/06/27 12:30:10;;;;;;;4.68;1.17;;;23.60;85.80;;;;;;4981309;28;20042;-52
2023/06/27 12:32:36;;;;;;;6.00;1.05;;;23.60;84.80;;;;;;4961789;28;20540;-56
2023/06/27 12:35:02;;;;;;;6.88;1.05;;;23.50;84.90;;;;;;4965064;28;20034;-55
2023/06/27 12:37:29;;;;;;;5.07;0.85;;;23.40;84.80;;;;;;4980890;28;20054;-55
2023/06/27 12:39:55;;;;;;;3.72;0.95;;;23.30;84.50;;;;;;4982219;28;20112;-57
2023/06/27 12:42:20;;;;;;;4.82;0.95;;;23.20;84.50;;;;;;4980856;28;20417;-60
2023/06/27 12:44:46;;;;;;;5.75;1.40;;;23.10;85.10;;;;;;4980077;28;20054;-52
2023/06/27 12:47:11;;;;;;;3.80;0.80;;;23.00;85.70;;;;;;4974173;28;20202;-55